createdAt,value
2018-10-06T00:01:22.688Z,97880.49
2018-10-06T00:03:52.143Z,97877.09
2018-10-06T00:06:21.551Z,97873.30
2018-10-06T00:08:50.999Z,97870.72
2018-10-06T00:11:20.425Z,97863.89
2018-10-06T00:13:49.819Z,97861.81
2018-10-06T00:16:19.236Z,97859.69
2018-10-06T00:18:48.645Z,97856.73
2018-10-06T00:21:18.223Z,97858.86
2018-10-06T00:23:47.624Z,97861.85
2018-10-06T00:26:17.004Z,97863.95
2018-10-06T00:28:46.383Z,97857.98
2018-10-06T00:31:15.799Z,97860.48
2018-10-06T00:33:45.231Z,97781.25
2018-10-06T00:36:14.667Z,97866.05
2018-10-06T00:38:44.099Z,97858.44
2018-10-06T00:41:13.571Z,97861.81
2018-10-06T00:43:42.987Z,97861.36
2018-10-06T00:46:12.439Z,97863.47
2018-10-06T00:48:41.828Z,97860.02
2018-10-06T00:51:11.263Z,97858.67
2018-10-06T00:53:40.700Z,97854.38
2018-10-06T00:56:10.135Z,97851.80
2018-10-06T00:58:39.519Z,97847.95
2018-10-06T01:01:08.949Z,97849.20
2018-10-06T01:03:38.339Z,97850.84
2018-10-06T01:06:07.839Z,97844.42
2018-10-06T01:08:37.251Z,97836.27
2018-10-06T01:11:06.692Z,97837.09
2018-10-06T01:13:36.178Z,97832.45
2018-10-06T01:16:05.584Z,97829.82
2018-10-06T01:18:34.980Z,97826.00
2018-10-06T01:21:04.448Z,97828.94
2018-10-06T01:23:33.867Z,97830.57
2018-10-06T01:26:03.279Z,97839.02
2018-10-06T01:28:32.703Z,97830.89
2018-10-06T01:31:02.123Z,97837.67
2018-10-06T01:33:31.559Z,97833.86
2018-10-06T01:36:01.100Z,97838.06
2018-10-06T01:38:30.510Z,97840.53
2018-10-06T01:40:59.907Z,97849.00
2018-10-06T01:43:29.339Z,97837.91
2018-10-06T01:45:58.775Z,97853.20
2018-10-06T01:48:28.171Z,97845.12
2018-10-06T01:50:57.750Z,97839.18
2018-10-06T01:53:27.106Z,97837.48
2018-10-06T01:55:56.527Z,97831.94
2018-10-06T01:58:25.959Z,97831.98
2018-10-06T02:00:55.347Z,97823.97
2018-10-06T02:03:24.760Z,97818.00
2018-10-06T02:05:54.200Z,97815.42
2018-10-06T02:08:23.618Z,97820.16
2018-10-06T02:10:53.020Z,97821.42
2018-10-06T02:13:22.476Z,97816.27
2018-10-06T02:15:51.986Z,97818.42
2018-10-06T02:18:21.395Z,97811.68
2018-10-06T02:20:50.853Z,97808.68
2018-10-06T02:23:20.483Z,97803.59
2018-10-06T02:25:49.891Z,97805.98
2018-10-06T02:28:19.301Z,97816.58
2018-10-06T02:30:48.810Z,97814.03
2018-10-06T02:33:18.816Z,97813.19
2018-10-06T02:35:48.218Z,97808.41
2018-10-06T02:38:18.768Z,97799.87
2018-10-06T02:40:48.239Z,97798.51
2018-10-06T02:43:18.804Z,97801.13
2018-10-06T02:45:48.439Z,97797.18
2018-10-06T02:48:18.840Z,97790.74
2018-10-06T02:50:48.664Z,97793.33
2018-10-06T02:53:18.715Z,97782.92
2018-10-06T02:55:48.132Z,97776.20
2018-10-06T02:58:18.778Z,97770.78
2018-10-06T03:00:48.216Z,97772.52
2018-10-06T03:03:18.895Z,97767.05
2018-10-06T03:05:48.314Z,97759.90
2018-10-06T03:08:18.940Z,97759.95
2018-10-06T03:10:48.355Z,97761.67
2018-10-06T03:13:18.868Z,97761.28
2018-10-06T03:15:48.372Z,97766.38
2018-10-06T03:18:18.904Z,97761.25
2018-10-06T03:20:48.313Z,97768.87
2018-10-06T03:23:18.952Z,97768.87
2018-10-06T03:25:48.355Z,97765.83
2018-10-06T03:28:18.992Z,97769.55
2018-10-06T03:30:48.396Z,97764.44
2018-10-06T03:33:19.040Z,97767.40
2018-10-06T03:35:48.474Z,97754.23
2018-10-06T03:38:19.119Z,97749.92
2018-10-06T03:40:48.643Z,97752.37
2018-10-06T03:43:19.071Z,97747.72
2018-10-06T03:45:48.467Z,97745.18
2018-10-06T03:48:19.113Z,97741.79
2018-10-06T03:50:48.507Z,97744.16
2018-10-06T03:53:19.159Z,97744.16
2018-10-06T03:55:48.548Z,97741.11
2018-10-06T03:58:19.103Z,97742.03
2018-10-06T04:00:48.491Z,97743.35
2018-10-06T04:03:19.131Z,97734.05
2018-10-06T04:05:48.528Z,97738.23
2018-10-06T04:08:19.168Z,97738.66
2018-10-06T04:10:48.586Z,97732.69
2018-10-06T04:13:19.080Z,97729.97
2018-10-06T04:15:48.535Z,97734.19
2018-10-06T04:18:19.165Z,97727.89
2018-10-06T04:20:48.600Z,97728.22
2018-10-06T04:23:19.117Z,97728.69
2018-10-06T04:25:48.544Z,97727.44
2018-10-06T04:28:19.319Z,97728.31
2018-10-06T04:30:48.695Z,97734.70
2018-10-06T04:33:19.107Z,97736.02
2018-10-06T04:35:48.511Z,97735.98
2018-10-06T04:38:19.135Z,97737.72
2018-10-06T04:40:48.572Z,97726.25
2018-10-06T04:43:19.196Z,97722.41
2018-10-06T04:45:48.620Z,97721.13
2018-10-06T04:48:19.108Z,97720.70
2018-10-06T04:50:48.524Z,97719.43
2018-10-06T04:53:19.239Z,97717.19
2018-10-06T04:55:48.607Z,97715.91
2018-10-06T04:58:19.272Z,97715.53
2018-10-06T05:00:48.716Z,97718.08
2018-10-06T05:03:19.122Z,97716.42
2018-10-06T05:05:48.576Z,97724.88
2018-10-06T05:08:19.208Z,97712.15
2018-10-06T05:10:48.619Z,97710.80
2018-10-06T05:13:19.257Z,97715.91
2018-10-06T05:15:48.819Z,97714.92
2018-10-06T05:18:19.119Z,97720.89
2018-10-06T05:20:48.552Z,97720.89
2018-10-06T05:23:19.196Z,97712.91
2018-10-06T05:25:48.628Z,97713.28
2018-10-06T05:28:19.260Z,97716.57
2018-10-06T05:30:48.698Z,97717.84
2018-10-06T05:33:19.220Z,97712.76
2018-10-06T05:35:48.689Z,97711.91
2018-10-06T05:38:19.152Z,97710.97
2018-10-06T05:40:48.584Z,97704.30
2018-10-06T05:43:19.215Z,97708.02
2018-10-06T05:45:48.727Z,97705.53
2018-10-06T05:48:19.221Z,97706.73
2018-10-06T05:50:48.616Z,97696.22
2018-10-06T05:53:19.152Z,97699.09
2018-10-06T05:55:48.540Z,97700.08
2018-10-06T05:58:19.251Z,97700.08
2018-10-06T06:00:48.649Z,97697.59
2018-10-06T06:03:19.416Z,97695.09
2018-10-06T06:05:48.812Z,97695.98
2018-10-06T06:08:19.281Z,97692.61
2018-10-06T06:10:48.668Z,97697.22
2018-10-06T06:13:19.308Z,97695.61
2018-10-06T06:15:48.789Z,97693.93
2018-10-06T06:18:19.363Z,97689.78
2018-10-06T06:20:48.773Z,97688.52
2018-10-06T06:23:19.416Z,97691.52
2018-10-06T06:25:48.840Z,97695.38
2018-10-06T06:28:19.503Z,97702.23
2018-10-06T06:30:48.903Z,97702.70
2018-10-06T06:33:19.424Z,97709.55
2018-10-06T06:35:48.840Z,97706.25
2018-10-06T06:38:19.488Z,97713.41
2018-10-06T06:40:48.891Z,97711.80
2018-10-06T06:43:19.709Z,97713.09
2018-10-06T06:45:49.118Z,97711.06
2018-10-06T06:48:19.402Z,97717.41
2018-10-06T06:50:48.991Z,97720.06
2018-10-06T06:53:19.393Z,97722.22
2018-10-06T06:55:48.796Z,97725.69
2018-10-06T06:58:19.456Z,97722.80
2018-10-06T07:00:48.894Z,97719.48
2018-10-06T07:03:19.548Z,97721.66
2018-10-06T07:05:49.017Z,97715.44
2018-10-06T07:08:19.406Z,97721.89
2018-10-06T07:10:48.808Z,97714.77
2018-10-06T07:13:19.452Z,97723.75
2018-10-06T07:15:48.851Z,97717.05
2018-10-06T07:18:19.563Z,97718.00
2018-10-06T07:20:48.919Z,97710.03
2018-10-06T07:23:19.465Z,97707.14
2018-10-06T07:25:48.864Z,97709.30
2018-10-06T07:28:19.412Z,97709.34
2018-10-06T07:30:48.808Z,97702.19
2018-10-06T07:33:19.447Z,97703.08
2018-10-06T07:35:48.854Z,97701.41
2018-10-06T07:38:19.467Z,97699.33
2018-10-06T07:40:48.871Z,97696.83
2018-10-06T07:43:19.387Z,97696.39
2018-10-06T07:45:48.807Z,97694.27
2018-10-06T07:48:19.520Z,97692.13
2018-10-06T07:50:49.172Z,97692.54
2018-10-06T07:53:19.553Z,97689.09
2018-10-06T07:55:48.948Z,97692.09
2018-10-06T07:58:19.480Z,97685.64
2018-10-06T08:00:48.832Z,97684.75
2018-10-06T08:03:19.616Z,97675.27
2018-10-06T08:05:49.125Z,97678.95
2018-10-06T08:08:19.619Z,97675.00
2018-10-06T08:10:49.076Z,97672.30
2018-10-06T08:13:19.500Z,97671.73
2018-10-06T08:15:48.920Z,97668.59
2018-10-06T08:18:19.439Z,97668.78
2018-10-06T08:20:48.891Z,97669.81
2018-10-06T08:23:19.589Z,97670.41
2018-10-06T08:25:49.004Z,97660.73
2018-10-06T08:28:19.500Z,97657.52
2018-10-06T08:30:48.920Z,97652.50
2018-10-06T08:33:19.580Z,97661.20
2018-10-06T08:35:49.007Z,97649.17
2018-10-06T08:38:19.497Z,97639.85
2018-10-06T08:40:48.892Z,97641.70
2018-10-06T08:43:19.552Z,97633.17
2018-10-06T08:45:48.977Z,97629.86
2018-10-06T08:48:19.468Z,97629.06
2018-10-06T08:50:48.861Z,97621.47
2018-10-06T08:53:19.504Z,97618.17
2018-10-06T08:55:48.914Z,97608.95
2018-10-06T08:58:19.608Z,97610.95
2018-10-06T09:00:49.020Z,97607.09
2018-10-06T09:03:19.568Z,97607.09
2018-10-06T09:05:49.000Z,97616.94
2018-10-06T09:08:19.484Z,97601.48
2018-10-06T09:10:48.944Z,97600.32
2018-10-06T09:13:19.585Z,97594.88
2018-10-06T09:15:49.015Z,97598.94
2018-10-06T09:18:19.625Z,97597.55
2018-10-06T09:20:49.064Z,97603.28
2018-10-06T09:23:19.504Z,97599.11
2018-10-06T09:25:49.021Z,97602.73
2018-10-06T09:28:19.598Z,97598.71
2018-10-06T09:30:49.089Z,97599.50
2018-10-06T09:33:19.496Z,97601.24
2018-10-06T09:35:49.037Z,97596.68
2018-10-06T09:38:19.504Z,97601.71
2018-10-06T09:40:48.945Z,97597.80
2018-10-06T09:43:19.588Z,97590.00
2018-10-06T09:45:49.032Z,97591.72
2018-10-06T09:48:19.706Z,97583.11
2018-10-06T09:50:49.118Z,97578.38
2018-10-06T09:53:19.539Z,97578.90
2018-10-06T09:55:48.956Z,97573.62
2018-10-06T09:58:19.616Z,97571.59
2018-10-06T10:00:54.146Z,97573.95
2018-10-06T10:03:28.928Z,97574.42
2018-10-06T10:05:58.506Z,97569.61
2018-10-06T10:08:27.816Z,97569.95
2018-10-06T10:10:57.224Z,97561.98
2018-10-06T10:13:26.615Z,97558.84
2018-10-06T10:15:56.008Z,97555.26
2018-10-06T10:18:25.582Z,97544.52
2018-10-06T10:20:54.955Z,97540.51
2018-10-06T10:23:24.439Z,97526.13
2018-10-06T10:25:53.796Z,97536.88
2018-10-06T10:28:23.274Z,97530.82
2018-10-06T10:30:52.617Z,97529.77
2018-10-06T10:33:22.063Z,97530.27
2018-10-06T10:35:51.493Z,97527.46
2018-10-06T10:38:20.947Z,97529.63
2018-10-06T10:40:51.148Z,97523.34
2018-10-06T10:43:20.616Z,97513.91
2018-10-06T10:45:50.043Z,97511.08
2018-10-06T10:48:19.860Z,97506.72
2018-10-06T10:50:49.249Z,97509.49
2018-10-06T10:53:19.843Z,97507.58
2018-10-06T10:55:49.266Z,97504.12
2018-10-06T10:58:19.744Z,97503.52
2018-10-06T11:00:49.146Z,97499.77
2018-10-06T11:03:19.916Z,97500.88
2018-10-06T11:05:49.323Z,97496.06
2018-10-06T11:08:19.866Z,97493.33
2018-10-06T11:10:49.312Z,97489.41
2018-10-06T11:13:19.744Z,97488.59
2018-10-06T11:15:49.208Z,97482.97
2018-10-06T11:18:19.868Z,97484.13
2018-10-06T11:20:49.315Z,97472.55
2018-10-06T11:23:19.804Z,97480.29
2018-10-06T11:25:49.239Z,97471.34
2018-10-06T11:28:19.742Z,97470.98
2018-10-06T11:30:49.195Z,97464.56
2018-10-06T11:33:19.820Z,97458.07
2018-10-06T11:35:50.207Z,97455.32
2018-10-06T11:38:19.885Z,97455.13
2018-10-06T11:40:49.231Z,97454.13
2018-10-06T11:43:19.743Z,97451.30
2018-10-06T11:45:49.235Z,97453.10
2018-10-06T11:48:19.788Z,97444.16
2018-10-06T11:50:49.195Z,97443.41
2018-10-06T11:53:19.844Z,97439.66
2018-10-06T11:55:49.271Z,97440.35
2018-10-06T11:58:21.496Z,97436.20
2018-10-06T12:00:51.001Z,97427.55
2018-10-06T12:03:20.596Z,97430.48
2018-10-06T12:05:50.152Z,97430.48
2018-10-06T12:08:19.849Z,97427.69
2018-10-06T12:10:49.260Z,97422.77
2018-10-06T12:13:20.023Z,97417.50
2018-10-06T12:15:49.415Z,97418.09
2018-10-06T12:18:19.789Z,97414.80
2018-10-06T12:20:49.196Z,97404.42
2018-10-06T12:23:19.866Z,97409.79
2018-10-06T12:25:49.300Z,97400.66
2018-10-06T12:28:19.991Z,97395.25
2018-10-06T12:30:49.399Z,97393.91
2018-10-06T12:33:20.061Z,97390.00
2018-10-06T12:35:49.657Z,97388.41
2018-10-06T12:38:20.048Z,97392.23
2018-10-06T12:40:49.447Z,97385.34
2018-10-06T12:43:19.982Z,97385.90
2018-10-06T12:45:49.405Z,97379.89
2018-10-06T12:48:20.072Z,97371.22
2018-10-06T12:50:49.494Z,97373.81
2018-10-06T12:53:20.037Z,97376.80
2018-10-06T12:55:49.429Z,97372.65
2018-10-06T12:58:20.104Z,97368.99
2018-10-06T13:00:49.511Z,97368.86
2018-10-06T13:03:20.264Z,97367.88
2018-10-06T13:05:49.707Z,97362.52
2018-10-06T13:08:20.059Z,97352.45
2018-10-06T13:10:49.497Z,97356.03
2018-10-06T13:13:20.152Z,97351.29
2018-10-06T13:15:49.591Z,97349.17
2018-10-06T13:18:20.081Z,97345.27
2018-10-06T13:20:49.488Z,97345.10
2018-10-06T13:23:20.023Z,97339.73
2018-10-06T13:25:49.483Z,97341.55
2018-10-06T13:28:20.124Z,97341.69
2018-10-06T13:30:49.584Z,97340.82
2018-10-06T13:33:20.037Z,97336.66
2018-10-06T13:35:49.444Z,97335.48
2018-10-06T13:38:20.109Z,97335.80
2018-10-06T13:40:49.512Z,97331.42
2018-10-06T13:43:20.231Z,97327.44
2018-10-06T13:45:49.631Z,97330.48
2018-10-06T13:48:20.100Z,97326.42
2018-10-06T13:50:49.615Z,97333.37
2018-10-06T13:53:20.092Z,97327.62
2018-10-06T13:55:49.503Z,97322.72
2018-10-06T13:58:20.180Z,97328.23
2018-10-06T14:00:49.924Z,97325.16
2018-10-06T14:03:20.313Z,97320.34
2018-10-06T14:05:49.753Z,97324.42
2018-10-06T14:08:20.228Z,97326.31
2018-10-06T14:10:49.692Z,97322.66
2018-10-06T14:13:20.043Z,97325.47
2018-10-06T14:15:49.471Z,97314.39
2018-10-06T14:18:20.109Z,97326.60
2018-10-06T14:20:49.532Z,97319.69
2018-10-06T14:23:20.179Z,97315.95
2018-10-06T14:25:49.590Z,97313.73
2018-10-06T14:28:20.115Z,97311.97
2018-10-06T14:30:49.515Z,97311.13
2018-10-06T14:33:20.072Z,97310.55
2018-10-06T14:35:49.488Z,97309.92
2018-10-06T14:38:20.142Z,97308.52
2018-10-06T14:40:49.620Z,97309.55
2018-10-06T14:43:20.085Z,97311.57
2018-10-06T14:45:49.612Z,97307.18
2018-10-06T14:48:20.120Z,97309.09
2018-10-06T14:50:49.667Z,97306.44
2018-10-06T14:53:20.127Z,97308.42
2018-10-06T14:55:49.572Z,97305.61
2018-10-06T14:58:20.095Z,97304.81
2018-10-06T15:00:49.547Z,97305.33
2018-10-06T15:03:20.262Z,97295.00
2018-10-06T15:05:49.747Z,97290.19
2018-10-06T15:08:20.235Z,97286.22
2018-10-06T15:10:49.674Z,97284.36
2018-10-06T15:13:20.269Z,97281.34
2018-10-06T15:15:49.695Z,97280.12
2018-10-06T15:18:20.138Z,97279.95
2018-10-06T15:20:49.548Z,97276.04
2018-10-06T15:23:20.196Z,97277.45
2018-10-06T15:25:49.595Z,97275.41
2018-10-06T15:28:20.264Z,97278.60
2018-10-06T15:30:49.672Z,97281.94
2018-10-06T15:33:20.119Z,97272.93
2018-10-06T15:35:49.588Z,97283.39
2018-10-06T15:38:20.190Z,97282.38
2018-10-06T15:40:49.579Z,97276.81
2018-10-06T15:43:20.257Z,97272.02
2018-10-06T15:45:49.655Z,97274.22
2018-10-06T15:48:20.153Z,97275.77
2018-10-06T15:50:49.558Z,97270.59
2018-10-06T15:53:20.215Z,97265.87
2018-10-06T15:55:49.644Z,97259.73
2018-10-06T15:58:20.177Z,97260.64
2018-10-06T16:00:49.613Z,97259.33
2018-10-06T16:03:20.113Z,97260.72
2018-10-06T16:05:49.667Z,97261.07
2018-10-06T16:08:20.144Z,97259.23
2018-10-06T16:10:49.552Z,97255.16
2018-10-06T16:13:20.201Z,97257.73
2018-10-06T16:15:49.634Z,97258.63
2018-10-06T16:18:20.275Z,97254.02
2018-10-06T16:20:49.720Z,97255.06
2018-10-06T16:23:20.172Z,97252.95
2018-10-06T16:25:49.660Z,97254.36
2018-10-06T16:28:20.211Z,97253.33
2018-10-06T16:30:49.700Z,97249.05
2018-10-06T16:33:20.226Z,97254.25
2018-10-06T16:35:49.627Z,97255.58
2018-10-06T16:38:20.276Z,97257.03
2018-10-06T16:40:49.713Z,97252.70
2018-10-06T16:43:20.235Z,97258.06
2018-10-06T16:45:49.706Z,97257.84
2018-10-06T16:48:20.200Z,97254.31
2018-10-06T16:50:49.611Z,97258.57
2018-10-06T16:53:20.320Z,97250.19
2018-10-06T16:55:49.763Z,97258.13
2018-10-06T16:58:20.208Z,97260.06
2018-10-06T17:00:49.631Z,97263.14
2018-10-06T17:03:20.272Z,97269.12
2018-10-06T17:05:49.692Z,97270.82
2018-10-06T17:08:20.167Z,97269.06
2018-10-06T17:10:49.637Z,97267.86
2018-10-06T17:13:20.164Z,97272.61
2018-10-06T17:15:49.604Z,97269.18
2018-10-06T17:18:20.248Z,97274.84
2018-10-06T17:20:49.688Z,97277.90
2018-10-06T17:23:20.351Z,97275.64
2018-10-06T17:25:49.764Z,97273.89
2018-10-06T17:28:20.212Z,97273.05
2018-10-06T17:30:49.688Z,97272.72
2018-10-06T17:33:20.223Z,97271.89
2018-10-06T17:35:49.656Z,97272.56
2018-10-06T17:38:20.187Z,97267.27
2018-10-06T17:40:49.639Z,97273.06
2018-10-06T17:43:20.295Z,97266.42
2018-10-06T17:45:49.756Z,97273.11
2018-10-06T17:48:20.231Z,97270.14
2018-10-06T17:50:49.824Z,97274.59
2018-10-06T17:53:20.291Z,97271.38
2018-10-06T17:55:49.776Z,97281.47
2018-10-06T17:58:20.316Z,97282.05
2018-10-06T18:00:49.680Z,97280.80
2018-10-06T18:03:20.368Z,97284.98
2018-10-06T18:05:49.785Z,97283.44
2018-10-06T18:08:20.203Z,97287.48
2018-10-06T18:10:49.615Z,97292.58
2018-10-06T18:13:20.313Z,97297.41
2018-10-06T18:15:49.712Z,97295.39
2018-10-06T18:18:20.216Z,97304.23
2018-10-06T18:20:49.741Z,97304.96
2018-10-06T18:23:20.356Z,97306.71
2018-10-06T18:25:49.860Z,97304.38
2018-10-06T18:28:20.303Z,97306.66
2018-10-06T18:30:49.843Z,97310.34
2018-10-06T18:33:20.227Z,97306.92
2018-10-06T18:35:49.648Z,97309.95
2018-10-06T18:38:20.300Z,97308.70
2018-10-06T18:40:49.780Z,97315.14
2018-10-06T18:43:20.343Z,97318.68
2018-10-06T18:45:49.737Z,97318.78
2018-10-06T18:48:20.260Z,97323.46
2018-10-06T18:50:49.684Z,97320.81
2018-10-06T18:53:20.329Z,97325.03
2018-10-06T18:55:49.784Z,97327.55
2018-10-06T18:58:20.426Z,97324.95
2018-10-06T19:00:49.900Z,97333.47
2018-10-06T19:03:20.510Z,97330.11
2018-10-06T19:05:49.872Z,97335.17
2018-10-06T19:08:20.505Z,97336.56
2018-10-06T19:10:49.913Z,97336.18
2018-10-06T19:13:20.615Z,97337.50
2018-10-06T19:15:50.127Z,97338.89
2018-10-06T19:18:20.564Z,97342.28
2018-10-06T19:20:50.020Z,97338.89
2018-10-06T19:23:20.520Z,97346.19
2018-10-06T19:25:50.095Z,97342.45
2018-10-06T19:28:20.613Z,97344.29
2018-10-06T19:30:50.410Z,97351.84
2018-10-06T19:33:20.628Z,97352.39
2018-10-06T19:35:50.277Z,97350.84
2018-10-06T19:38:20.553Z,97354.69
2018-10-06T19:40:51.309Z,97355.23
2018-10-06T19:43:20.890Z,97352.36
2018-10-06T19:45:50.760Z,97356.71
2018-10-06T19:48:21.856Z,97355.09
2018-10-06T19:50:52.060Z,97356.80
2018-10-06T19:53:21.894Z,97357.73
2018-10-06T19:55:52.384Z,97365.64
2018-10-06T19:58:21.858Z,97361.51
2018-10-06T20:00:51.904Z,97364.20
2018-10-06T20:03:22.238Z,97358.63
2018-10-06T20:05:52.446Z,97364.77
2018-10-06T20:08:21.896Z,97342.42
2018-10-06T20:10:51.433Z,97364.00
2018-10-06T20:13:21.068Z,97366.21
2018-10-06T20:15:50.804Z,97348.34
2018-10-06T20:18:20.683Z,97366.00
2018-10-06T20:20:50.125Z,97371.30
2018-10-06T20:23:20.612Z,97367.52
2018-10-06T20:25:50.419Z,97368.05
2018-10-06T20:28:20.944Z,97371.08
2018-10-06T20:30:50.377Z,97368.97
2018-10-06T20:33:20.640Z,97368.89
2018-10-06T20:35:50.163Z,97377.11
2018-10-06T20:38:20.499Z,97371.09
2018-10-06T20:40:49.954Z,97370.84
2018-10-06T20:43:20.616Z,97371.73
2018-10-06T20:45:50.137Z,97369.71
2018-10-06T20:48:20.545Z,97375.07
2018-10-06T20:50:49.955Z,97369.75
2018-10-06T20:53:20.635Z,97370.78
2018-10-06T20:55:50.043Z,97373.62
2018-10-06T20:58:20.659Z,97374.53
2018-10-06T21:00:50.109Z,97374.22
2018-10-06T21:03:20.588Z,97376.93
2018-10-06T21:05:50.008Z,97370.92
2018-10-06T21:08:20.660Z,97371.37
2018-10-06T21:10:50.134Z,97370.86
2018-10-06T21:13:20.532Z,97375.05
2018-10-06T21:15:49.954Z,97369.22
2018-10-06T21:18:20.614Z,97372.75
2018-10-06T21:20:50.039Z,97376.86
2018-10-06T21:23:20.571Z,97374.31
2018-10-06T21:25:49.992Z,97371.72
2018-10-06T21:28:20.674Z,97373.38
2018-10-06T21:30:50.180Z,97370.70
2018-10-06T21:33:21.011Z,97373.70
2018-10-06T21:35:51.856Z,97371.34
2018-10-06T21:38:21.676Z,97366.84
2018-10-06T21:40:51.220Z,97371.61
2018-10-06T21:43:20.856Z,97365.30
2018-10-06T21:45:50.517Z,97372.64
2018-10-06T21:48:20.755Z,97367.55
2018-10-06T21:50:50.484Z,97372.81
2018-10-06T21:53:20.815Z,97374.52
2018-10-06T21:55:50.671Z,97374.68
2018-10-06T21:58:20.792Z,97375.12
2018-10-06T22:00:55.768Z,97370.56
2018-10-06T22:03:25.573Z,97373.38
2018-10-06T22:05:55.395Z,97380.89
2018-10-06T22:08:24.848Z,97382.75
2018-10-06T22:10:54.357Z,97355.34
2018-10-06T22:13:24.419Z,97376.21
2018-10-06T22:15:53.845Z,97384.36
2018-10-06T22:18:23.291Z,97377.39
2018-10-06T22:20:52.718Z,97379.68
2018-10-06T22:23:22.139Z,97382.59
2018-10-06T22:25:51.721Z,97386.83
2018-10-06T22:28:21.132Z,97379.95
2018-10-06T22:30:50.903Z,97385.48
2018-10-06T22:33:21.019Z,97387.17
2018-10-06T22:35:50.567Z,97388.10
2018-10-06T22:38:21.111Z,97393.58
2018-10-06T22:40:50.951Z,97392.69
2018-10-06T22:43:21.278Z,97387.11
2018-10-06T22:45:50.968Z,97393.19
2018-10-06T22:48:21.002Z,97394.91
2018-10-06T22:50:50.519Z,97394.15
2018-10-06T22:53:21.243Z,97396.78
2018-10-06T22:55:50.867Z,97395.05
2018-10-06T22:58:21.190Z,97393.38
2018-10-06T23:00:50.727Z,97390.52
2018-10-06T23:03:21.040Z,97396.94
2018-10-06T23:05:50.687Z,97389.34
2018-10-06T23:08:21.002Z,97389.91
2018-10-06T23:10:50.436Z,97389.61
2018-10-06T23:13:21.289Z,97386.91
2018-10-06T23:15:50.959Z,97380.41
2018-10-06T23:18:21.042Z,97385.05
2018-10-06T23:20:50.749Z,97381.09
2018-10-06T23:23:21.172Z,97380.20
2018-10-06T23:25:52.049Z,97379.76
2018-10-06T23:28:21.880Z,97388.30
2018-10-06T23:30:51.413Z,97384.48
2018-10-06T23:33:20.999Z,97389.63
2018-10-06T23:35:50.436Z,97389.28
2018-10-06T23:38:20.913Z,97399.14
2018-10-06T23:40:50.587Z,97391.45
2018-10-06T23:43:21.056Z,97390.61
2018-10-06T23:45:50.586Z,97397.21
2018-10-06T23:48:20.879Z,97397.35
2018-10-06T23:50:50.300Z,97399.13
2018-10-06T23:53:20.919Z,97407.44
2018-10-06T23:55:50.313Z,97403.73
2018-10-06T23:58:20.951Z,97407.44
